Kerrick, Texas
Current Conditions -  °F | °C
As of 5:53 AM on Thursday 29 Jan 2015 (Local Time) from KDHT Reporting Station
Overcast Overcast  
Wind Chill: 36°   Ceiling: 10000
Heat Index: 45°   Visibility: 10mi
Dew Point: 32°   Wind: 23mph
Humidity: 60%   Direction: 360°N
Pressure: 30.37"   Gusts: NA
Location:  36.5°N, 102.24°W
Report Text: KDHT 291153Z AUTO 36020KT 10SM OVC100 07/00 A3037 RMK AO2 SLP264 T00720000 10094 20061 51024
Loading
Personal Weather Stations






























Interactive Weather Map New forecast layout! Learn more

10-Day Weather Forecast

Advertisements
Track Severe Weather on mobile